Time;durP1;ratioP1;P1;durP2;ratioP2;P2;SDS_P1;SDS_P2;PMS_P1;PMS_P2;Temp;Humidity;BMP_temperature;BMP_pressure;BME280_temperature;BME280_humidity;BME280_pressure;Samples;Min_cycle;Max_cycle;Signal;HPM_P1;HPM_P2
2024/01/31 00:02:08;;;;;;;;;;;;;;;-1.33;65.04;96823.13;5054034;28;1983;-61
2024/01/31 00:04:42;;;;;;;;;;;;;;;-1.83;65.82;96823.75;5053831;28;984;-61
2024/01/31 00:07:14;;;;;;;;;;;;;;;-1.82;66.67;96819.34;5054088;28;1005;-61
2024/01/31 00:09:48;;;;;;;;;;;;;;;-1.94;66.57;96819.72;5054045;28;1316;-61
2024/01/31 00:12:22;;;;;;;;;;;;;;;-2.81;68.31;96821.19;5053814;28;933;-60
2024/01/31 00:14:57;;;;;;;;;;;;;;;-2.81;69.74;96821.19;5053601;28;1101;-61
2024/01/31 00:17:31;;;;;;;;;;;;;;;-2.68;68.93;96824.34;5053619;28;1024;-61
2024/01/31 00:20:06;;;;;;;;;;;;;;;-3.13;70.09;96817.59;5053828;28;1541;-61
2024/01/31 00:22:40;;;;;;;;;;;;;;;-3.10;70.66;96814.94;5053825;28;1906;-61
2024/01/31 00:25:14;;;;;;;;;;;;;;;-3.05;70.94;96815.69;5053721;28;990;-60
2024/01/31 00:27:47;;;;;;;;;;;;;;;-3.05;70.93;96817.44;5053661;28;1452;-58
2024/01/31 00:30:21;;;;;;;;;;;;;;;-2.85;70.72;96820.41;5053721;28;943;-58
2024/01/31 00:32:56;;;;;;;;;;;;;;;-3.00;70.83;96816.44;5053758;28;927;-57
2024/01/31 00:35:30;;;;;;;;;;;;;;;-3.55;70.58;96815.09;5053655;28;942;-58
2024/01/31 00:38:04;;;;;;;;;;;;;;;-3.52;72.08;96815.03;5053276;28;905;-57
2024/01/31 00:40:39;;;;;;;;;;;;;;;-3.25;72.39;96810.91;5053254;28;1980;-57
2024/01/31 00:43:13;;;;;;;;;;;;;;;-3.15;72.10;96815.06;5053289;28;993;-58
2024/01/31 00:45:48;;;;;;;;;;;;;;;-3.45;71.13;96814.03;5053430;28;1012;-58
2024/01/31 00:48:23;;;;;;;;;;;;;;;-3.20;71.83;96806.44;5053349;28;1001;-57
2024/01/31 00:50:55;;;;;;;;;;;;;;;-2.72;71.36;96815.72;5053199;28;953;-57
2024/01/31 00:53:30;;;;;;;;;;;;;;;-2.36;68.91;96826.13;5053309;28;1154;-58
2024/01/31 00:56:04;;;;;;;;;;;;;;;-2.11;67.19;96826.31;5053480;28;862;-58
2024/01/31 00:58:39;;;;;;;;;;;;;;;-2.02;66.44;96828.66;5053332;28;930;-58
2024/01/31 01:01:13;;;;;;;;;;;;;;;-1.80;65.58;96814.97;5053211;28;1976;-58
2024/01/31 01:03:58;;;;;;;;;;;;;;;-2.38;64.32;96833.16;5053230;28;1668;-58
2024/01/31 01:06:33;;;;;;;;;;;;;;;-3.16;68.68;96813.31;5053238;28;948;-57
2024/01/31 01:09:07;;;;;;;;;;;;;;;-2.90;68.26;96821.41;5052978;28;997;-58
2024/01/31 01:11:42;;;;;;;;;;;;;;;-2.94;68.41;96825.88;5053202;28;970;-58
2024/01/31 01:14:16;;;;;;;;;;;;;;;-3.53;69.33;96822.03;5052847;28;1144;-58
2024/01/31 01:16:50;;;;;;;;;;;;;;;-3.44;70.16;96815.72;5052994;28;938;-58
2024/01/31 01:19:25;;;;;;;;;;;;;;;-3.14;69.82;96818.53;5052807;28;985;-60
2024/01/31 01:22:00;;;;;;;;;;;;;;;-3.01;69.73;96825.19;5052785;28;1909;-60
2024/01/31 01:24:34;;;;;;;;;;;;;;;-3.28;69.82;96825.81;5052736;28;978;-60
2024/01/31 01:27:08;;;;;;;;;;;;;;;-3.45;70.85;96819.25;5053039;28;919;-60
2024/01/31 01:29:43;;;;;;;;;;;;;;;-3.21;70.70;96812.56;5052968;28;1016;-60
2024/01/31 01:32:17;;;;;;;;;;;;;;;-3.51;69.64;96815.91;5052873;28;1020;-60
2024/01/31 01:34:51;;;;;;;;;;;;;;;-3.64;70.32;96816.19;5052928;28;950;-60
2024/01/31 01:37:26;;;;;;;;;;;;;;;-4.05;71.42;96802.25;5052808;28;945;-61
2024/01/31 01:40:00;;;;;;;;;;;;;;;-3.86;72.43;96801.88;5052934;28;1021;-60
2024/01/31 01:42:40;;;;;;;;;;;;;;;-3.73;72.05;96796.31;5052463;28;1906;-61
2024/01/31 01:45:15;;;;;;;;;;;;;;;-3.43;72.15;96801.75;5052813;28;922;-60
2024/01/31 01:47:52;;;;;;;;;;;;;;;-3.62;70.02;96800.47;5052528;28;984;-61
2024/01/31 01:50:26;;;;;;;;;;;;;;;-3.97;71.50;96795.09;5052421;28;993;-61
2024/01/31 01:53:01;;;;;;;;;;;;;;;-3.73;72.42;96777.19;5047716;28;1251;-61
2024/01/31 01:55:37;;;;;;;;;;;;;;;-3.74;71.20;96786.78;5036452;28;929;-60
2024/01/31 01:58:11;;;;;;;;;;;;;;;-4.30;72.80;96786.22;5036578;28;933;-60
2024/01/31 02:00:46;;;;;;;;;;;;;;;-4.30;73.37;96783.63;5036149;28;1922;-59
2024/01/31 02:03:20;;;;;;;;;;;;;;;-4.08;72.41;96781.41;5036286;28;1406;-60
2024/01/31 02:05:58;;;;;;;;;;;;;;;-3.84;72.55;96789.63;5036142;28;945;-60
2024/01/31 02:08:32;;;;;;;;;;;;;;;-4.02;71.60;96798.69;5036110;28;1004;-60
2024/01/31 02:11:07;;;;;;;;;;;;;;;-4.01;71.86;96793.44;5036029;28;1210;-61
2024/01/31 02:13:41;;;;;;;;;;;;;;;-4.37;71.94;96790.69;5036084;28;1225;-61
2024/01/31 02:16:15;;;;;;;;;;;;;;;-4.24;72.69;96783.47;5035918;28;989;-60
2024/01/31 02:18:48;;;;;;;;;;;;;;;-4.14;72.52;96784.16;5035796;28;1653;-60
2024/01/31 02:21:24;;;;;;;;;;;;;;;-4.06;72.42;96779.63;5036031;28;1906;-60
2024/01/31 02:23:58;;;;;;;;;;;;;;;-4.26;72.88;96781.81;5036078;28;944;-60
2024/01/31 02:26:33;;;;;;;;;;;;;;;-4.16;71.90;96784.16;5036068;28;1004;-60
2024/01/31 02:29:07;;;;;;;;;;;;;;;-4.25;72.64;96781.78;5036028;28;1016;-60
2024/01/31 02:31:39;;;;;;;;;;;;;;;-4.14;72.28;96777.16;5035916;28;1602;-60
2024/01/31 02:34:13;;;;;;;;;;;;;;;-4.53;72.22;96784.94;5035978;28;968;-60
2024/01/31 02:36:48;;;;;;;;;;;;;;;-4.79;73.58;96784.56;5035989;28;945;-60
2024/01/31 02:39:22;;;;;;;;;;;;;;;-4.85;73.10;96785.53;5035464;28;941;-60
2024/01/31 02:41:57;;;;;;;;;;;;;;;-5.02;73.40;96790.19;5035707;28;1980;-60
2024/01/31 02:44:29;;;;;;;;;;;;;;;-4.78;73.59;96781.03;5035653;28;1601;-60
2024/01/31 02:47:02;;;;;;;;;;;;;;;-4.52;73.45;96789.25;5035640;28;1920;-60
2024/01/31 02:49:36;;;;;;;;;;;;;;;-4.41;73.73;96785.59;5035724;28;981;-60
2024/01/31 02:52:10;;;;;;;;;;;;;;;-4.83;71.98;96781.13;5035556;28;968;-60
2024/01/31 02:54:43;;;;;;;;;;;;;;;-5.05;73.84;96783.25;5035542;28;1447;-60
2024/01/31 02:57:18;;;;;;;;;;;;;;;-4.91;73.43;96772.59;5035242;28;945;-59
2024/01/31 02:59:52;;;;;;;;;;;;;;;-4.91;73.23;96773.44;5035551;28;961;-60
2024/01/31 03:02:26;;;;;;;;;;;;;;;-5.39;73.13;96781.22;5034983;28;2045;-60
2024/01/31 03:05:01;;;;;;;;;;;;;;;-5.66;75.26;96779.06;5034439;28;937;-60
2024/01/31 03:07:35;;;;;;;;;;;;;;;-5.31;75.46;96778.50;5035621;28;909;-60
2024/01/31 03:10:09;;;;;;;;;;;;;;;-4.93;73.97;96780.44;5035323;28;999;-60
2024/01/31 03:12:44;;;;;;;;;;;;;;;-4.69;73.42;96773.03;5034763;28;1082;-61
2024/01/31 03:15:18;;;;;;;;;;;;;;;-4.84;73.04;96774.19;5034825;28;984;-60
2024/01/31 03:17:52;;;;;;;;;;;;;;;-5.08;73.50;96770.28;5034865;28;1023;-60
2024/01/31 03:20:27;;;;;;;;;;;;;;;-4.77;73.97;96764.50;5034962;28;1938;-61
2024/01/31 03:23:01;;;;;;;;;;;;;;;-4.75;72.94;96758.34;5035127;28;1004;-60
2024/01/31 03:25:35;;;;;;;;;;;;;;;-5.47;74.21;96769.19;5035114;28;1572;-60
2024/01/31 03:28:10;;;;;;;;;;;;;;;-5.25;75.10;96764.50;5035012;28;904;-60
2024/01/31 03:30:44;;;;;;;;;;;;;;;-4.92;74.38;96765.66;5034678;28;969;-60
2024/01/31 03:33:18;;;;;;;;;;;;;;;-4.71;73.41;96757.41;5034534;28;992;-60
2024/01/31 03:35:53;;;;;;;;;;;;;;;-5.18;72.31;96755.66;5034737;28;951;-61
2024/01/31 03:38:25;;;;;;;;;;;;;;;-5.74;74.38;96756.56;5034293;28;1531;-61
2024/01/31 03:40:59;;;;;;;;;;;;;;;-5.70;75.02;96750.41;5034422;28;1910;-60
2024/01/31 03:43:33;;;;;;;;;;;;;;;-5.33;74.92;96755.06;5034621;28;989;-60
2024/01/31 03:46:07;;;;;;;;;;;;;;;-5.17;73.81;96760.00;5034280;28;873;-61
2024/01/31 03:48:40;;;;;;;;;;;;;;;-5.15;74.00;96756.47;5034583;28;1515;-60
2024/01/31 03:51:19;;;;;;;;;;;;;;;-5.08;73.84;96754.63;5034362;28;1670;-61
2024/01/31 03:53:54;;;;;;;;;;;;;;;-5.53;74.02;96759.72;5047794;28;1201;-60
2024/01/31 03:56:27;;;;;;;;;;;;;;;-5.55;74.38;96748.47;5054161;28;1672;-60
2024/01/31 03:59:03;;;;;;;;;;;;;;;-5.70;75.04;96755.63;5054290;28;907;-60
2024/01/31 04:01:37;;;;;;;;;;;;;;;-5.93;74.77;96755.97;5054191;28;1905;-61
2024/01/31 04:04:11;;;;;;;;;;;;;;;-5.63;74.98;96758.13;5053945;28;1001;-60
2024/01/31 04:06:41;;;;;;;;;;;;;;;-5.38;74.01;96756.88;5054373;28;1712;-61
2024/01/31 04:09:16;;;;;;;;;;;;;;;-5.12;74.35;96752.97;5054038;28;973;-61
2024/01/31 04:11:50;;;;;;;;;;;;;;;-5.01;73.26;96766.66;5054116;28;1017;-61
2024/01/31 04:14:25;;;;;;;;;;;;;;;-5.33;73.49;96760.28;5053594;28;1078;-60
2024/01/31 04:16:58;;;;;;;;;;;;;;;-5.24;73.04;96763.59;5052777;28;1032;-60
2024/01/31 04:19:32;;;;;;;;;;;;;;;-5.51;73.86;96761.41;5053871;28;1092;-61
2024/01/31 04:22:06;;;;;;;;;;;;;;;-5.87;74.14;96773.28;5053541;28;1906;-60
2024/01/31 04:24:41;;;;;;;;;;;;;;;-6.22;75.76;96774.66;5053753;28;950;-60
2024/01/31 04:27:14;;;;;;;;;;;;;;;-6.06;76.96;96766.63;5053571;28;913;-60
2024/01/31 04:29:48;;;;;;;;;;;;;;;-5.62;75.48;96778.13;5053788;28;917;-60
2024/01/31 04:32:23;;;;;;;;;;;;;;;-5.78;74.74;96767.94;5053271;28;981;-60
2024/01/31 04:34:58;;;;;;;;;;;;;;;-5.88;75.00;96779.34;5053660;28;1005;-61
2024/01/31 04:37:32;;;;;;;;;;;;;;;-6.05;75.62;96777.03;5053392;28;1021;-60
2024/01/31 04:40:07;;;;;;;;;;;;;;;-5.88;75.71;96779.34;5053558;28;946;-60
2024/01/31 04:42:41;;;;;;;;;;;;;;;-5.99;74.95;96784.75;5053123;28;1978;-60
2024/01/31 04:45:16;;;;;;;;;;;;;;;-5.78;75.07;96787.91;5053368;28;994;-60
2024/01/31 04:47:50;;;;;;;;;;;;;;;-5.94;74.97;96782.03;5053337;28;964;-60
2024/01/31 04:50:24;;;;;;;;;;;;;;;-6.18;75.38;96781.53;5053022;28;909;-61
2024/01/31 04:52:59;;;;;;;;;;;;;;;-6.44;76.58;96784.47;5052956;28;1214;-60
2024/01/31 04:55:33;;;;;;;;;;;;;;;-6.45;76.91;96785.34;5053198;28;930;-61
2024/01/31 04:58:07;;;;;;;;;;;;;;;-6.26;76.18;96783.34;5052980;28;922;-60
2024/01/31 05:00:41;;;;;;;;;;;;;;;-5.88;75.74;96784.56;5053047;28;1910;-61
2024/01/31 05:03:16;;;;;;;;;;;;;;;-5.67;75.08;96780.81;5052815;28;1048;-60
2024/01/31 05:05:50;;;;;;;;;;;;;;;-5.72;74.38;96783.47;5053177;28;895;-60
2024/01/31 05:08:26;;;;;;;;;;;;;;;-5.64;74.80;96783.34;5053035;28;944;-62
2024/01/31 05:11:01;;;;;;;;;;;;;;;-5.62;74.31;96799.81;5053199;28;1013;-60
2024/01/31 05:13:36;;;;;;;;;;;;;;;-5.55;74.40;96798.84;5052736;28;1456;-60
2024/01/31 05:16:10;;;;;;;;;;;;;;;-5.49;74.74;96790.06;5052866;28;934;-60
2024/01/31 05:18:44;;;;;;;;;;;;;;;-5.62;73.38;96793.75;5052770;28;1073;-59
2024/01/31 05:21:17;;;;;;;;;;;;;;;-6.09;74.41;96799.66;5052757;28;1906;-59
2024/01/31 05:23:50;;;;;;;;;;;;;;;-6.15;74.66;96802.31;5052824;28;1047;-59
2024/01/31 05:26:24;;;;;;;;;;;;;;;-6.67;76.03;96805.53;5039060;28;1055;-59
2024/01/31 05:28:58;;;;;;;;;;;;;;;-6.70;76.58;96798.63;5036319;28;986;-59
2024/01/31 05:31:33;;;;;;;;;;;;;;;-6.35;76.72;96797.38;5037070;28;1014;-59
2024/01/31 05:34:05;;;;;;;;;;;;;;;-6.09;76.07;96794.44;5037096;28;957;-59
2024/01/31 05:36:38;;;;;;;;;;;;;;;-5.82;75.86;96791.44;5036876;28;941;-59
2024/01/31 05:39:11;;;;;;;;;;;;;;;-5.53;74.54;96798.84;5036564;28;974;-59
2024/01/31 05:41:44;;;;;;;;;;;;;;;-5.54;73.49;96794.50;5035850;28;1906;-59
2024/01/31 05:44:18;;;;;;;;;;;;;;;-6.11;73.70;96805.75;5036873;28;1006;-59
2024/01/31 05:46:51;;;;;;;;;;;;;;;-6.32;75.65;96804.28;5036866;28;993;-59
2024/01/31 05:49:25;;;;;;;;;;;;;;;-6.10;76.23;96810.94;5036442;28;930;-60
2024/01/31 05:51:58;;;;;;;;;;;;;;;-5.97;74.69;96808.19;5036494;28;1133;-60
2024/01/31 05:54:28;;;;;;;;;;;;;;;-6.02;75.05;96807.38;5054495;28;1529;-60
2024/01/31 05:57:00;;;;;;;;;;;;;;;-6.16;74.45;96807.56;5130800;22;4161;-59
2024/01/31 05:59:38;;;;;;;;;;;;;;;-6.34;75.75;96806.03;5036368;28;993;-59
2024/01/31 06:02:09;;;;;;;;;;;;;;;-6.23;75.43;96806.75;5036265;28;1910;-59
2024/01/31 06:04:40;;;;;;;;;;;;;;;-6.31;76.65;96813.81;5019166;28;1505;-58
2024/01/31 06:07:12;;;;;;;;;;;;;;;-6.37;75.55;96813.91;5036575;28;1603;-59
2024/01/31 06:09:41;;;;;;;;;;;;;;;-6.15;75.35;96806.66;5036397;28;1524;-58
2024/01/31 06:12:14;;;;;;;;;;;;;;;-6.30;75.24;96811.19;5036396;28;841;-59
2024/01/31 06:14:46;;;;;;;;;;;;;;;-6.38;76.07;96805.22;5036388;28;1614;-59
2024/01/31 06:17:20;;;;;;;;;;;;;;;-6.24;76.21;96809.38;5036286;28;941;-57
2024/01/31 06:19:52;;;;;;;;;;;;;;;-5.58;74.66;96811.06;5036372;28;1572;-58
2024/01/31 06:22:24;;;;;;;;;;;;;;;-3.14;65.56;96816.75;5035907;28;2000;-58
2024/01/31 06:24:58;;;;;;;;;;;;;;;-0.52;55.44;96838.00;5036041;28;985;-58
2024/01/31 06:27:29;;;;;;;;;;;;;;;1.00;50.15;96854.38;5036177;28;1564;-59
2024/01/31 06:33:11;;;;;;;;;;;;;;;3.69;43.75;96877.53;5036104;28;1470;-58
2024/01/31 06:35:43;;;;;;;;;;;;;;;5.39;40.42;96882.66;5036072;28;1631;-59
2024/01/31 06:38:14;;;;;;;;;;;;;;;6.11;37.83;96903.34;5035940;28;1681;-58
2024/01/31 06:40:46;;;;;;;;;;;;;;;6.25;37.30;96900.72;5034872;28;1990;-56
2024/01/31 06:43:19;;;;;;;;;;;;;;;5.70;38.57;96899.47;5035801;28;1629;-56
2024/01/31 06:45:52;;;;;;;;;;;;;;;5.70;38.13;96896.81;5035937;28;1450;-56
2024/01/31 06:48:24;;;;;;;;;;;;;;;6.54;37.17;96895.44;5035775;28;807;-57
2024/01/31 06:50:56;;;;;;;;;;;;;;;7.08;37.01;96897.47;5035819;28;1580;-57
2024/01/31 06:53:29;;;;;;;;;;;;;;;7.71;35.53;96910.22;5045571;28;1150;-56
2024/01/31 06:56:01;;;;;;;;;;;;;;;8.75;33.94;96913.03;5055613;28;1515;-56
2024/01/31 06:58:33;;;;;;;;;;;;;;;9.95;32.25;96919.59;5055412;28;1426;-55
2024/01/31 07:01:05;;;;;;;;;;;;;;;10.23;31.83;96921.06;5055339;28;1997;-56
2024/01/31 07:03:36;;;;;;;;;;;;;;;11.86;29.94;96921.69;5055152;28;1544;-56
2024/01/31 07:06:06;;;;;;;;;;;;;;;12.91;28.38;96934.41;5055171;28;1682;-57
2024/01/31 07:08:39;;;;;;;;;;;;;;;14.24;26.48;96954.00;5055540;28;1409;-57
2024/01/31 07:11:12;;;;;;;;;;;;;;;13.86;26.27;96952.94;5055177;28;1444;-57
2024/01/31 07:13:42;;;;;;;;;;;;;;;14.63;25.63;96955.91;5055247;28;1508;-57
2024/01/31 07:16:14;;;;;;;;;;;;;;;14.74;25.19;96962.97;5055577;28;1287;-57
2024/01/31 07:18:46;;;;;;;;;;;;;;;13.81;25.83;96963.28;5055271;28;1450;-57
2024/01/31 07:21:25;;;;;;;;;;;;;;;14.01;25.48;96957.94;5054986;28;1991;-58
2024/01/31 07:23:57;;;;;;;;;;;;;;;14.19;25.79;96952.72;5055051;28;1503;-58
2024/01/31 07:26:30;;;;;;;;;;;;;;;15.56;24.48;96962.38;5054630;28;1438;-58
2024/01/31 07:29:08;;;;;;;;;;;;;;;16.00;23.79;96950.97;5055001;28;1033;-58
2024/01/31 07:31:40;;;;;;;;;;;;;;;16.13;23.22;96958.72;5054924;28;1621;-58
2024/01/31 07:34:12;;;;;;;;;;;;;;;15.83;23.74;96954.47;5054872;28;1622;-57
2024/01/31 07:36:42;;;;;;;;;;;;;;;15.72;23.42;96950.94;5054803;28;1684;-57
2024/01/31 07:39:17;;;;;;;;;;;;;;;16.30;23.56;96946.25;5054812;28;1678;-58
2024/01/31 07:41:52;;;;;;;;;;;;;;;17.10;22.14;96954.38;5054458;28;1910;-57
2024/01/31 07:44:24;;;;;;;;;;;;;;;16.92;22.51;96947.16;5054493;28;1548;-58
2024/01/31 07:46:56;;;;;;;;;;;;;;;17.30;21.67;96946.91;5054659;28;1606;-58
2024/01/31 07:49:29;;;;;;;;;;;;;;;16.75;22.62;96948.00;5054518;28;1493;-57
2024/01/31 07:52:02;;;;;;;;;;;;;;;15.92;23.16;96940.94;5054261;28;1822;-57
2024/01/31 07:54:35;;;;;;;;;;;;;;;15.21;23.46;96936.97;5054271;28;1519;-58
2024/01/31 07:57:07;;;;;;;;;;;;;;;14.30;24.31;96944.50;5053959;28;1650;-56
2024/01/31 07:59:42;;;;;;;;;;;;;;;12.24;26.64;96920.34;5054231;28;968;-57
2024/01/31 08:02:15;;;;;;;;;;;;;;;10.16;30.52;96909.94;5053945;28;2003;-56
2024/01/31 08:04:46;;;;;;;;;;;;;;;7.74;33.14;96891.41;5054244;28;861;-57
2024/01/31 08:07:18;;;;;;;;;;;;;;;6.45;36.80;96872.97;5054261;28;1581;-57
2024/01/31 08:09:51;;;;;;;;;;;;;;;6.51;37.05;96861.97;5054185;28;1508;-57
2024/01/31 08:12:23;;;;;;;;;;;;;;;6.39;36.31;96873.31;5054017;28;1646;-57
2024/01/31 08:14:54;;;;;;;;;;;;;;;5.96;38.05;96863.47;5054179;28;1608;-57
2024/01/31 08:17:26;;;;;;;;;;;;;;;5.88;38.35;96849.78;5053998;28;1476;-56
2024/01/31 08:19:59;;;;;;;;;;;;;;;5.96;38.42;96846.72;5053959;28;1556;-57
2024/01/31 08:22:35;;;;;;;;;;;;;;;5.63;40.08;96842.38;5053529;28;2001;-57
2024/01/31 08:25:10;;;;;;;;;;;;;;;5.52;40.27;96845.69;5053741;28;986;-57
2024/01/31 08:27:41;;;;;;;;;;;;;;;5.55;40.33;96837.53;5053840;28;1556;-57
2024/01/31 08:30:15;;;;;;;;;;;;;;;5.04;40.11;96834.25;5053708;28;1620;-57
2024/01/31 08:32:47;;;;;;;;;;;;;;;5.39;41.17;96831.41;5053847;28;2237;-56
2024/01/31 08:35:19;;;;;;;;;;;;;;;5.66;41.38;96828.94;5053621;28;1615;-57
2024/01/31 08:37:52;;;;;;;;;;;;;;;5.63;40.81;96818.50;5053312;28;1533;-56
2024/01/31 08:40:25;;;;;;;;;;;;;;;5.36;41.46;96815.66;5053475;28;1506;-57
2024/01/31 08:42:58;;;;;;;;;;;;;;;5.62;41.42;96812.34;5053083;28;1910;-57
2024/01/31 08:45:30;;;;;;;;;;;;;;;5.64;42.64;96804.31;5053472;28;1527;-56
2024/01/31 08:48:02;;;;;;;;;;;;;;;5.24;41.78;96809.25;5053445;28;1474;-56
2024/01/31 08:50:36;;;;;;;;;;;;;;;5.93;41.19;96802.56;5053487;28;1607;-57
2024/01/31 08:53:09;;;;;;;;;;;;;;;6.31;39.71;96803.88;5052950;28;1535;-56
2024/01/31 08:55:41;;;;;;;;;;;;;;;6.65;39.41;96805.28;5053357;28;1556;-57
2024/01/31 08:58:13;;;;;;;;;;;;;;;7.12;39.38;96796.06;5052788;28;1478;-56
2024/01/31 09:00:45;;;;;;;;;;;;;;;6.86;39.36;96772.97;5053268;28;1914;-57
2024/01/31 09:03:17;;;;;;;;;;;;;;;7.30;39.08;96787.84;5052532;28;1616;-57
2024/01/31 09:05:51;;;;;;;;;;;;;;;7.75;37.91;96789.25;5053164;28;1620;-56
2024/01/31 09:08:25;;;;;;;;;;;;;;;7.87;38.29;96789.38;5053030;28;1016;-57
2024/01/31 09:10:57;;;;;;;;;;;;;;;7.99;37.24;96788.53;5053198;28;1482;-56
2024/01/31 09:13:31;;;;;;;;;;;;;;;7.77;37.27;96784.66;5052908;28;1005;-57
2024/01/31 09:16:02;;;;;;;;;;;;;;;8.35;37.20;96778.97;5053206;28;1556;-57
2024/01/31 09:18:34;;;;;;;;;;;;;;;8.56;37.04;96781.97;5052963;28;1472;-56
2024/01/31 09:21:09;;;;;;;;;;;;;;;8.74;36.49;96771.78;5053166;28;1913;-57
2024/01/31 09:23:43;;;;;;;;;;;;;;;8.90;36.83;96776.88;5053149;28;1553;-56
2024/01/31 09:26:18;;;;;;;;;;;;;;;9.34;37.33;96762.09;5053053;28;1026;-56
2024/01/31 09:28:51;;;;;;;;;;;;;;;9.44;37.18;96765.75;5053222;28;900;-57
2024/01/31 09:31:22;;;;;;;;;;;;;;;9.21;35.42;96762.13;5052991;28;1504;-57
2024/01/31 09:33:55;;;;;;;;;;;;;;;9.22;36.93;96754.97;5053099;28;1479;-56
2024/01/31 09:36:27;;;;;;;;;;;;;;;9.33;35.90;96758.56;5052876;28;1434;-57
2024/01/31 09:39:00;;;;;;;;;;;;;;;9.34;35.27;96754.06;5052996;28;1401;-57
2024/01/31 09:41:33;;;;;;;;;;;;;;;9.40;36.31;96742.09;5052550;28;2003;-56
2024/01/31 09:44:06;;;;;;;;;;;;;;;9.26;36.50;96743.09;5052927;28;1805;-57
2024/01/31 09:46:39;;;;;;;;;;;;;;;9.33;35.34;96739.00;5052894;28;1445;-57
2024/01/31 09:49:13;;;;;;;;;;;;;;;9.87;35.99;96740.31;5052720;28;1426;-56
2024/01/31 09:51:42;;;;;;;;;;;;;;;9.77;35.90;96729.47;5035318;28;1513;-56
2024/01/31 09:54:16;;;;;;;;;;;;;;;9.84;34.97;96716.47;5052542;28;2098;-56
2024/01/31 09:56:47;;;;;;;;;;;;;;;10.18;34.79;96717.38;5052498;28;1466;-56
2024/01/31 09:59:20;;;;;;;;;;;;;;;10.53;34.34;96719.97;5052706;28;1513;-57
2024/01/31 10:01:54;;;;;;;;;;;;;;;10.64;33.37;96716.44;5052562;28;1995;-57
2024/01/31 10:04:26;;;;;;;;;;;;;;;10.91;33.96;96705.31;5052631;28;1430;-56
2024/01/31 10:06:59;;;;;;;;;;;;;;;11.24;31.88;96711.56;5052475;28;1643;-57
2024/01/31 10:09:31;;;;;;;;;;;;;;;11.43;31.89;96713.53;5052382;28;1556;-57
2024/01/31 10:12:03;;;;;;;;;;;;;;;11.60;31.54;96711.28;5052638;28;1591;-55
2024/01/31 10:14:35;;;;;;;;;;;;;;;11.60;31.25;96708.63;5054937;28;890;-56
2024/01/31 10:17:07;;;;;;;;;;;;;;;11.56;28.99;96704.50;5056199;28;1494;-56
2024/01/31 10:19:42;;;;;;;;;;;;;;;11.95;27.76;96708.34;5056411;28;978;-56
2024/01/31 10:22:15;;;;;;;;;;;;;;;12.04;26.60;96709.34;5055874;28;1918;-56
2024/01/31 10:24:50;;;;;;;;;;;;;;;12.09;23.30;96720.53;5055856;28;2012;-56
2024/01/31 10:27:22;;;;;;;;;;;;;;;12.16;24.78;96716.38;5055925;28;1572;-54
2024/01/31 10:29:55;;;;;;;;;;;;;;;12.29;24.17;96717.00;5055943;28;1496;-55
2024/01/31 10:32:28;;;;;;;;;;;;;;;12.54;24.14;96711.28;5038871;28;1622;-54
2024/01/31 10:35:01;;;;;;;;;;;;;;;12.57;23.23;96706.50;5055876;28;1465;-54
2024/01/31 10:37:34;;;;;;;;;;;;;;;12.65;23.18;96708.50;5055877;28;1216;-54
2024/01/31 10:40:08;;;;;;;;;;;;;;;12.70;23.38;96700.91;5055725;28;1473;-55
2024/01/31 10:42:43;;;;;;;;;;;;;;;12.75;23.69;96706.72;5055346;28;1930;-54
2024/01/31 10:45:14;;;;;;;;;;;;;;;12.55;22.44;96713.84;5055604;28;1543;-54
2024/01/31 10:47:47;;;;;;;;;;;;;;;12.66;22.67;96697.66;5055571;28;1662;-54
2024/01/31 10:50:21;;;;;;;;;;;;;;;12.81;22.02;96708.00;5055731;28;1037;-54
2024/01/31 10:52:54;;;;;;;;;;;;;;;12.59;23.53;96698.31;5055636;28;1217;-54
2024/01/31 10:55:27;;;;;;;;;;;;;;;12.77;22.51;96691.34;5055518;28;1526;-54
2024/01/31 10:58:01;;;;;;;;;;;;;;;12.89;23.75;96690.22;5055085;28;1507;-54
2024/01/31 11:00:33;;;;;;;;;;;;;;;12.69;22.19;96691.16;5055351;28;1493;-54
2024/01/31 11:03:06;;;;;;;;;;;;;;;12.74;22.75;96677.34;5055034;28;1981;-54
2024/01/31 11:05:38;;;;;;;;;;;;;;;13.07;22.08;96673.44;5055239;28;1427;-55
2024/01/31 11:08:18;;;;;;;;;;;;;;;13.30;20.92;96676.75;5055254;28;1810;-55
2024/01/31 11:10:51;;;;;;;;;;;;;;;12.78;22.49;96665.34;5055230;28;1227;-55
2024/01/31 11:13:23;;;;;;;;;;;;;;;12.80;21.17;96666.03;5055179;28;1135;-55
2024/01/31 11:15:56;;;;;;;;;;;;;;;12.53;20.67;96666.69;5055244;28;1454;-55
2024/01/31 11:18:29;;;;;;;;;;;;;;;12.28;21.36;96672.38;5054997;28;1674;-55
2024/01/31 11:21:06;;;;;;;;;;;;;;;12.33;21.07;96652.34;5054981;28;2004;-55
2024/01/31 11:23:42;;;;;;;;;;;;;;;12.64;21.01;96650.47;5055153;28;949;-55
2024/01/31 11:26:18;;;;;;;;;;;;;;;12.74;21.06;96647.81;5037674;28;1450;-55
2024/01/31 11:28:52;;;;;;;;;;;;;;;12.17;20.84;96645.66;5054775;28;1002;-56
2024/01/31 11:31:26;;;;;;;;;;;;;;;12.02;22.30;96630.91;5054769;28;1038;-55
2024/01/31 11:33:59;;;;;;;;;;;;;;;12.05;22.81;96630.66;5054909;28;1544;-55
2024/01/31 11:36:29;;;;;;;;;;;;;;;12.29;22.33;96628.50;5054687;28;1466;-56
2024/01/31 11:39:05;;;;;;;;;;;;;;;12.42;22.20;96624.69;5054872;28;1022;-55
2024/01/31 11:41:39;;;;;;;;;;;;;;;12.33;22.24;96628.19;5054720;28;1990;-55
2024/01/31 11:44:11;;;;;;;;;;;;;;;12.24;22.45;96620.00;5054507;28;1606;-56
2024/01/31 11:46:42;;;;;;;;;;;;;;;12.38;21.93;96615.25;5054337;28;2119;-55
2024/01/31 11:49:15;;;;;;;;;;;;;;;12.28;21.89;96610.69;5054307;28;1641;-55
2024/01/31 11:51:47;;;;;;;;;;;;;;;12.10;21.65;96613.19;5054500;28;1637;-55
2024/01/31 11:54:20;;;;;;;;;;;;;;;11.99;22.32;96617.75;5054240;28;1314;-55
2024/01/31 11:56:54;;;;;;;;;;;;;;;12.02;22.36;96594.22;5054099;28;1493;-55
2024/01/31 11:59:27;;;;;;;;;;;;;;;11.71;22.61;96590.66;5054380;28;958;-55
2024/01/31 12:01:59;;;;;;;;;;;;;;;11.58;21.99;96600.75;5054449;28;1997;-55
2024/01/31 12:04:31;;;;;;;;;;;;;;;11.71;22.42;96590.66;5054230;28;1604;-54
2024/01/31 12:07:06;;;;;;;;;;;;;;;11.72;22.80;96585.19;5054165;28;1015;-55
2024/01/31 12:09:38;;;;;;;;;;;;;;;12.03;23.28;96589.72;5054068;28;1864;-55
2024/01/31 12:12:13;;;;;;;;;;;;;;;12.08;21.69;96588.34;5053775;28;923;-59
2024/01/31 12:14:46;;;;;;;;;;;;;;;11.75;22.31;96583.22;5054064;28;1498;-56
2024/01/31 12:17:19;;;;;;;;;;;;;;;11.63;22.59;96580.59;5053856;28;1078;-57
2024/01/31 12:20:04;;;;;;;;;;;;;;;11.86;22.13;96581.28;5054118;28;970;-56
2024/01/31 12:22:37;;;;;;;;;;;;;;;11.93;23.11;96570.03;5053467;28;1999;-56
2024/01/31 12:25:10;;;;;;;;;;;;;;;11.70;21.69;96572.88;5053373;28;1412;-55
2024/01/31 12:27:42;;;;;;;;;;;;;;;11.48;22.55;96566.72;5053950;28;1380;-56
2024/01/31 12:30:15;;;;;;;;;;;;;;;11.37;22.74;96569.47;5053762;28;897;-56
2024/01/31 12:32:50;;;;;;;;;;;;;;;11.30;22.23;96563.75;5053509;28;1008;-56
2024/01/31 12:35:22;;;;;;;;;;;;;;;11.31;22.02;96551.25;5053486;28;1635;-56
2024/01/31 12:37:54;;;;;;;;;;;;;;;11.26;22.13;96553.44;5052830;28;1602;-55
2024/01/31 12:40:29;;;;;;;;;;;;;;;11.20;22.63;96557.50;5053415;28;1470;-55
2024/01/31 12:43:02;;;;;;;;;;;;;;;11.30;22.75;96557.56;5053105;28;1997;-55
2024/01/31 12:45:35;;;;;;;;;;;;;;;11.27;22.06;96555.16;5053433;28;1517;-55
2024/01/31 12:48:09;;;;;;;;;;;;;;;11.08;23.02;96554.03;5053835;28;896;-56
2024/01/31 12:50:42;;;;;;;;;;;;;;;11.00;23.01;96552.97;5053452;28;959;-55
2024/01/31 12:53:16;;;;;;;;;;;;;;;10.94;22.43;96549.84;5053190;28;1565;-55
2024/01/31 12:55:49;;;;;;;;;;;;;;;10.90;22.64;96558.28;5053457;28;1392;-55
2024/01/31 12:58:23;;;;;;;;;;;;;;;10.93;22.92;96553.50;5053005;28;1069;-55
2024/01/31 13:00:55;;;;;;;;;;;;;;;11.05;22.54;96554.28;5053015;28;1910;-56
2024/01/31 13:03:28;;;;;;;;;;;;;;;11.12;21.91;96555.47;5053385;28;980;-56
2024/01/31 13:06:02;;;;;;;;;;;;;;;11.05;22.59;96556.97;5053139;28;946;-55
2024/01/31 13:08:35;;;;;;;;;;;;;;;10.82;22.81;96556.22;5036630;28;1211;-55
2024/01/31 13:11:12;;;;;;;;;;;;;;;10.83;22.54;96543.69;5053005;28;1016;-55
2024/01/31 13:13:49;;;;;;;;;;;;;;;10.73;22.38;96544.47;5053280;28;1505;-56
2024/01/31 13:16:19;;;;;;;;;;;;;;;10.67;23.43;96547.66;5053545;28;1606;-55
2024/01/31 13:18:50;;;;;;;;;;;;;;;10.75;22.63;96536.31;5052817;28;1552;-56
2024/01/31 13:21:22;;;;;;;;;;;;;;;10.72;22.49;96548.13;5052825;28;1965;-56
2024/01/31 13:23:57;;;;;;;;;;;;;;;10.73;22.55;96546.28;5053055;28;1434;-56
2024/01/31 13:26:32;;;;;;;;;;;;;;;10.46;21.52;96541.41;5036574;28;1485;-57
2024/01/31 13:29:04;;;;;;;;;;;;;;;10.35;21.11;96540.47;5053091;28;1390;-56
2024/01/31 13:31:36;;;;;;;;;;;;;;;10.42;21.06;96545.31;5053022;28;1429;-57
2024/01/31 13:34:10;;;;;;;;;;;;;;;10.39;21.37;96540.22;5052867;28;946;-57
2024/01/31 13:36:44;;;;;;;;;;;;;;;10.55;21.45;96538.00;5053059;28;911;-56
2024/01/31 13:39:18;;;;;;;;;;;;;;;10.53;22.15;96532.75;5052873;28;1616;-56